This is the latest recevied weather packets stored in our database for station/object VE6CWS-7. If no packets are shown the sender has not sent any weather packets the latest 10 day(s).
| Time | Temp. | Humidity | Pressure | Rain* | Wind** | Luminosity | Snow |
|---|---|---|---|---|---|---|---|
| 1777753838 | 17.22° C | 36% | 1015.3 hPa | 0 mm | - | - | - |
| 1777752943 | 17.22° C | 35% | 1015.3 hPa | 0 mm | - | - | - |
| 1777752096 | 17.22° C | 34% | 1015.6 hPa | 0 mm | - | - | - |
| 1777751135 | 17.22° C | 35% | 1015.9 hPa | 0 mm | - | - | - |
| 1777750232 | 17.22° C | 35% | 1016.2 hPa | 0 mm | - | - | - |
| 1777749331 | 16.67° C | 35% | 1016.3 hPa | 0 mm | - | - | - |
| 1777748491 | 16.67° C | 36% | 1016.4 hPa | 0 mm | - | - | - |
| 1777747559 | 16.67° C | 36% | 1016.7 hPa | 0 mm | - | - | - |
| 1777746651 | 16.67° C | 36% | 1016.7 hPa | 0 mm | - | - | - |
| 1777745749 | 16.11° C | 38% | 1016.9 hPa | 0 mm | - | - | - |
| 1777744906 | 16.11° C | 39% | 1017 hPa | 0 mm | - | - | - |
| 1777743946 | 15.56° C | 42% | 1017.2 hPa | 0 mm | - | - | - |
| 1777743046 | 15.56° C | 44% | 1017.3 hPa | 0 mm | - | - | - |
| 1777742142 | 15° C | 45% | 1017.5 hPa | 0 mm | - | - | - |
| 1777741300 | 14.44° C | 45% | 1017.5 hPa | 0 mm | - | - | - |
| 1777740349 | 14.44° C | 48% | 1017.4 hPa | 0 mm | - | - | - |
| 1777739443 | 13.89° C | 48% | 1017.6 hPa | 0 mm | - | - | - |
| 1777738541 | 13.33° C | 51% | 1017.6 hPa | 0 mm | - | - | - |
| 1777737699 | 12.78° C | 56% | 1017.8 hPa | 0 mm | - | - | - |
| 1777736737 | 12.78° C | 56% | 1017.8 hPa | 0 mm | - | - | - |
| 1777735834 | 11.11° C | 61% | 1017.9 hPa | 0 mm | - | - | - |
| 1777734933 | 10.56° C | 63% | 1017.8 hPa | 0 mm | - | - | - |
| 1777734093 | 10.56° C | 64% | 1017.9 hPa | 0 mm | - | - | - |
| 1777733152 | 10.56° C | 63% | 1017.9 hPa | 0 mm | - | - | - |
| 1777732252 | 10° C | 64% | 1017.7 hPa | 0 mm | - | - | - |
* Rain latest hour (hover to see other rain measurements)
** Current wind speed in m/s (hover to see current wind gust speed)